Time;durP1;ratioP1;P1;durP2;ratioP2;P2;SDS_P1;SDS_P2;PMS_P1;PMS_P2;Temp;Humidity;BMP_temperature;BMP_pressure;BME280_temperature;BME280_humidity;BME280_pressure;Samples;Min_cycle;Max_cycle;Signal;HPM_P1;HPM_P2
2023/04/29 00:02:00;;;;;;;;;;;10.50;99.90;;;;;;5053680;28;19905;-87
2023/04/29 00:04:25;;;;;;;;;;;10.50;99.90;;;;;;5054856;28;20371;-87
2023/04/29 00:06:51;;;;;;;;;;;10.50;99.90;;;;;;5053605;28;20412;-87
2023/04/29 00:09:17;;;;;;;;;;;10.60;99.90;;;;;;5052917;28;20008;-87
2023/04/29 00:11:42;;;;;;;;;;;10.60;99.90;;;;;;5053939;28;19920;-86
2023/04/29 00:14:08;;;;;;;;;;;10.60;99.90;;;;;;5053476;28;19991;-88
2023/04/29 00:16:33;;;;;;;;;;;10.60;99.90;;;;;;5054321;28;19932;-87
2023/04/29 00:18:59;;;;;;;;;;;10.60;99.90;;;;;;5053284;28;19948;-87
2023/04/29 00:21:26;;;;;;;;;;;10.50;99.90;;;;;;5053273;28;19905;-87
2023/04/29 00:23:52;;;;;;;;;;;10.50;99.90;;;;;;5053196;28;19966;-86
2023/04/29 00:26:17;;;;;;;;;;;10.50;99.90;;;;;;5052763;28;20255;-87
2023/04/29 00:28:43;;;;;;;;;;;10.50;99.90;;;;;;5053280;28;19911;-87
2023/04/29 00:31:09;;;;;;;;;;;10.50;99.90;;;;;;5053234;28;19909;-87
2023/04/29 00:33:34;;;;;;;;;;;10.50;99.90;;;;;;5053551;28;19928;-87
2023/04/29 00:36:01;;;;;;;;;;;10.50;99.90;;;;;;5054045;28;19905;-85
2023/04/29 00:38:26;;;;;;;;;;;10.50;99.90;;;;;;5052656;28;20297;-85
2023/04/29 00:40:52;;;;;;;;;;;10.50;99.90;;;;;;5051740;28;20403;-84
2023/04/29 00:43:17;;;;;;;;;;;10.50;99.90;;;;;;5051549;28;19904;-84
2023/04/29 00:45:45;;;;;;;;;;;10.50;99.90;;;;;;5051079;28;19909;-83
2023/04/29 00:48:11;;;;;;;;;;;10.50;99.90;;;;;;5050872;28;20377;-85
2023/04/29 00:50:37;;;;;;;;;;;10.40;99.90;;;;;;5051121;28;19905;-85
2023/04/29 00:53:03;;;;;;;;;;;10.40;99.90;;;;;;5052175;28;20003;-85
2023/04/29 00:55:28;;;;;;;;;;;10.50;99.90;;;;;;5053642;28;19916;-85
2023/04/29 00:57:54;;;;;;;;;;;10.50;99.90;;;;;;5052055;28;19938;-85
2023/04/29 01:00:20;;;;;;;;;;;10.50;99.90;;;;;;5051547;28;19920;-84
2023/04/29 01:02:46;;;;;;;;;;;10.50;99.90;;;;;;5050205;28;20378;-83
2023/04/29 01:05:11;;;;;;;;;;;10.40;99.90;;;;;;5050194;28;19917;-83
2023/04/29 01:07:44;;;;;;;;;;;10.40;99.90;;;;;;5050010;28;19927;-83
2023/04/29 01:10:14;;;;;;;;;;;10.50;99.90;;;;;;5049077;28;19916;-84
2023/04/29 01:12:39;;;;;;;;;;;10.50;99.90;;;;;;5050001;28;19909;-84
2023/04/29 01:15:05;;;;;;;;;;;10.60;99.90;;;;;;5050717;28;20373;-81
2023/04/29 01:17:36;;;;;;;;;;;10.70;99.90;;;;;;5050399;28;20284;-87
2023/04/29 01:20:09;;;;;;;;;;;10.70;99.90;;;;;;5051058;28;19905;-86
2023/04/29 01:22:35;;;;;;;;;;;10.80;99.90;;;;;;5052070;28;19905;-87
2023/04/29 01:25:01;;;;;;;;;;;10.70;99.90;;;;;;5051954;28;20357;-87
2023/04/29 01:27:35;;;;;;;;;;;10.70;99.90;;;;;;5052044;28;19955;-87
2023/04/29 01:30:07;;;;;;;;;;;10.70;99.90;;;;;;5051896;28;20284;-86
2023/04/29 01:32:42;;;;;;;;;;;10.60;99.90;;;;;;5051856;28;20012;-84
2023/04/29 01:35:16;;;;;;;;;;;10.50;99.90;;;;;;5050920;28;19904;-84
2023/04/29 01:37:56;;;;;;;;;;;10.50;99.90;;;;;;5052308;28;20388;-85
2023/04/29 01:40:29;;;;;;;;;;;10.40;99.90;;;;;;5052130;28;19991;-87
2023/04/29 01:43:02;;;;;;;;;;;10.50;99.90;;;;;;5050701;28;19909;-84
2023/04/29 01:45:28;;;;;;;;;;;10.40;99.90;;;;;;5050645;28;19967;-84
2023/04/29 01:47:57;;;;;;;;;;;10.40;99.90;;;;;;5050810;28;20467;-86
2023/04/29 01:50:23;;;;;;;;;;;10.40;99.90;;;;;;5050974;28;20365;-85
2023/04/29 01:52:48;;;;;;;;;;;10.30;99.90;;;;;;5051297;28;19936;-85
2023/04/29 01:55:14;;;;;;;;;;;10.30;99.90;;;;;;5050892;28;19911;-86
2023/04/29 01:57:39;;;;;;;;;;;10.30;99.90;;;;;;5051332;28;19958;-87
2023/04/29 02:00:05;;;;;;;;;;;10.30;99.90;;;;;;5051040;28;19916;-86
2023/04/29 02:02:31;;;;;;;;;;;10.30;99.90;;;;;;5050113;28;19913;-86
2023/04/29 02:04:56;;;;;;;;;;;10.30;99.90;;;;;;5050002;28;19912;-86
2023/04/29 02:07:22;;;;;;;;;;;10.30;99.90;;;;;;5051214;28;19905;-86
2023/04/29 02:09:47;;;;;;;;;;;10.30;99.90;;;;;;5051527;28;20645;-86
2023/04/29 02:12:13;;;;;;;;;;;10.20;99.90;;;;;;5050842;28;19904;-86
2023/04/29 02:14:38;;;;;;;;;;;10.20;99.90;;;;;;5051559;28;19909;-86
2023/04/29 02:17:04;;;;;;;;;;;10.20;99.90;;;;;;5051422;28;19908;-87
2023/04/29 02:19:30;;;;;;;;;;;10.20;99.90;;;;;;5051385;28;19916;-86
2023/04/29 02:21:55;;;;;;;;;;;10.20;99.90;;;;;;5052398;28;19911;-86
2023/04/29 02:24:21;;;;;;;;;;;10.30;99.90;;;;;;5050875;28;19916;-87
2023/04/29 02:26:46;;;;;;;;;;;10.40;99.90;;;;;;5051629;28;20412;-87
2023/04/29 02:29:12;;;;;;;;;;;10.40;99.90;;;;;;5051669;28;20377;-85
2023/04/29 02:31:37;;;;;;;;;;;10.40;99.90;;;;;;5054550;28;20391;-87
2023/04/29 02:34:03;;;;;;;;;;;10.40;99.90;;;;;;5055374;28;19932;-86
2023/04/29 02:36:29;;;;;;;;;;;10.40;99.90;;;;;;5054748;28;19908;-86
2023/04/29 02:38:55;;;;;;;;;;;10.30;99.90;;;;;;5054834;28;19999;-86
2023/04/29 02:41:21;;;;;;;;;;;10.30;99.90;;;;;;5054743;28;19952;-86
2023/04/29 02:43:47;;;;;;;;;;;10.30;99.90;;;;;;5055755;28;19963;-86
2023/04/29 02:46:13;;;;;;;;;;;10.20;99.90;;;;;;5054909;28;19908;-85
2023/04/29 02:48:39;;;;;;;;;;;10.20;99.90;;;;;;5054451;28;19988;-85
2023/04/29 02:51:05;;;;;;;;;;;10.20;99.90;;;;;;5055936;28;19904;-86
2023/04/29 02:53:31;;;;;;;;;;;10.20;99.90;;;;;;5055014;28;20488;-86
2023/04/29 02:55:57;;;;;;;;;;;10.20;99.90;;;;;;5052362;28;19908;-85
2023/04/29 02:58:22;;;;;;;;;;;10.20;99.90;;;;;;5054014;28;19924;-86
2023/04/29 03:00:48;;;;;;;;;;;10.20;99.90;;;;;;5056288;28;19917;-86
2023/04/29 03:03:13;;;;;;;;;;;10.20;99.90;;;;;;5052678;28;19955;-85
2023/04/29 03:05:39;;;;;;;;;;;10.20;99.90;;;;;;5053781;28;19959;-85
2023/04/29 03:08:05;;;;;;;;;;;10.20;99.90;;;;;;5054144;28;19954;-85
2023/04/29 03:10:30;;;;;;;;;;;10.20;99.90;;;;;;5054373;28;20353;-85
2023/04/29 03:12:56;;;;;;;;;;;10.30;99.90;;;;;;5054193;28;20324;-85
2023/04/29 03:15:21;;;;;;;;;;;10.30;99.90;;;;;;5054395;28;19904;-86
2023/04/29 03:17:47;;;;;;;;;;;10.30;99.90;;;;;;5054265;28;19912;-86
2023/04/29 03:20:12;;;;;;;;;;;10.30;99.90;;;;;;5053935;28;19905;-86
2023/04/29 03:22:38;;;;;;;;;;;10.30;99.90;;;;;;5055049;28;20297;-86
2023/04/29 03:25:04;;;;;;;;;;;10.30;99.90;;;;;;5054087;28;20286;-86
2023/04/29 03:27:30;;;;;;;;;;;10.30;99.90;;;;;;5054264;28;19959;-85
2023/04/29 03:29:55;;;;;;;;;;;10.30;99.90;;;;;;5054969;28;19948;-86
2023/04/29 03:32:21;;;;;;;;;;;10.30;99.90;;;;;;5053039;28;19904;-82
2023/04/29 03:34:48;;;;;;;;;;;10.30;99.90;;;;;;5051535;28;19909;-86
2023/04/29 03:37:15;;;;;;;;;;;10.20;99.90;;;;;;5052070;28;19905;-85
2023/04/29 03:39:41;;;;;;;;;;;10.30;99.90;;;;;;5053067;28;19908;-84
2023/04/29 03:42:06;;;;;;;;;;;10.30;99.90;;;;;;5052362;28;20331;-86
2023/04/29 03:44:32;;;;;;;;;;;10.20;99.90;;;;;;5053080;28;20000;-89
2023/04/29 03:46:57;;;;;;;;;;;10.20;99.90;;;;;;5054776;28;19998;-88
2023/04/29 03:49:24;;;;;;;;;;;10.20;99.90;;;;;;5054356;28;19996;-85
2023/04/29 03:51:50;;;;;;;;;;;10.20;99.90;;;;;;5054519;28;19912;-88
2023/04/29 03:54:15;;;;;;;;;;;10.30;99.90;;;;;;5054461;28;19966;-85
2023/04/29 03:56:42;;;;;;;;;;;10.30;99.90;;;;;;5053039;28;19909;-87
2023/04/29 03:59:07;;;;;;;;;;;10.30;99.90;;;;;;5053507;28;19915;-86
2023/04/29 04:01:33;;;;;;;;;;;10.30;99.90;;;;;;5054661;28;19911;-86
2023/04/29 04:03:59;;;;;;;;;;;10.30;99.90;;;;;;5053335;28;19909;-86
2023/04/29 04:06:25;;;;;;;;;;;10.30;99.90;;;;;;5053577;28;19915;-86
2023/04/29 04:08:51;;;;;;;;;;;10.30;99.90;;;;;;5052799;28;19928;-86
2023/04/29 04:11:17;;;;;;;;;;;10.40;99.90;;;;;;5052891;28;19905;-86
2023/04/29 04:13:42;;;;;;;;;;;10.40;99.90;;;;;;5052906;28;19911;-85
2023/04/29 04:16:09;;;;;;;;;;;10.40;99.90;;;;;;5052909;28;19959;-86
2023/04/29 04:18:35;;;;;;;;;;;10.40;99.90;;;;;;5052849;28;20392;-86
2023/04/29 04:21:08;;;;;;;;;;;10.40;99.90;;;;;;5052083;28;19912;-86
2023/04/29 04:23:33;;;;;;;;;;;10.40;99.90;;;;;;5049921;28;19915;-86
2023/04/29 04:25:59;;;;;;;;;;;10.40;99.90;;;;;;5051341;28;19917;-86
2023/04/29 04:28:24;;;;;;;;;;;10.40;99.90;;;;;;5052604;28;20425;-85
2023/04/29 04:30:50;;;;;;;;;;;10.40;99.90;;;;;;5053537;28;20297;-85
2023/04/29 04:33:15;;;;;;;;;;;10.50;99.90;;;;;;5053181;28;19916;-85
2023/04/29 04:35:41;;;;;;;;;;;10.50;99.90;;;;;;5052088;28;20370;-86
2023/04/29 04:38:08;;;;;;;;;;;10.50;99.90;;;;;;5052096;28;19909;-85
2023/04/29 04:40:33;;;;;;;;;;;10.60;99.90;;;;;;5052053;28;19905;-86
2023/04/29 04:42:59;;;;;;;;;;;10.50;99.90;;;;;;5051383;28;20007;-86
2023/04/29 04:45:27;;;;;;;;;;;10.60;99.90;;;;;;5052339;28;19952;-86
2023/04/29 04:47:52;;;;;;;;;;;10.60;99.90;;;;;;5052371;28;19912;-85
2023/04/29 04:50:19;;;;;;;;;;;10.60;99.90;;;;;;5051907;28;19905;-85
2023/04/29 04:52:44;;;;;;;;;;;10.60;99.90;;;;;;5051718;28;20282;-85
2023/04/29 04:55:10;;;;;;;;;;;10.70;99.90;;;;;;5051572;28;19911;-85
2023/04/29 04:57:35;;;;;;;;;;;10.70;99.90;;;;;;5052092;28;19908;-85
2023/04/29 05:00:02;;;;;;;;;;;10.70;99.90;;;;;;5051796;28;19916;-85
2023/04/29 05:02:28;;;;;;;;;;;10.70;99.90;;;;;;5052984;28;20328;-84
2023/04/29 05:04:54;;;;;;;;;;;10.80;99.90;;;;;;5052450;28;19913;-86
2023/04/29 05:07:19;;;;;;;;;;;10.90;99.90;;;;;;5051511;28;20383;-84
2023/04/29 05:09:45;;;;;;;;;;;10.90;99.90;;;;;;5051975;28;19904;-84
2023/04/29 05:12:11;;;;;;;;;;;11.10;99.90;;;;;;5050895;28;19911;-86
2023/04/29 05:14:36;;;;;;;;;;;11.30;99.90;;;;;;5051269;28;19944;-85
2023/04/29 05:17:02;;;;;;;;;;;11.30;99.90;;;;;;5051022;28;20365;-84
2023/04/29 05:19:27;;;;;;;;;;;11.30;99.90;;;;;;5050420;28;19908;-85
2023/04/29 05:21:53;;;;;;;;;;;11.30;99.90;;;;;;5051084;28;19904;-84
2023/04/29 05:24:19;;;;;;;;;;;11.40;99.90;;;;;;5051116;28;20434;-85
2023/04/29 05:26:44;;;;;;;;;;;11.30;99.90;;;;;;5051624;28;19940;-85
2023/04/29 05:29:10;;;;;;;;;;;11.30;99.90;;;;;;5050132;28;20003;-85
2023/04/29 05:31:37;;;;;;;;;;;11.40;99.90;;;;;;5050731;28;19912;-85
2023/04/29 05:34:03;;;;;;;;;;;11.30;99.90;;;;;;5051278;28;19905;-85
2023/04/29 05:36:28;;;;;;;;;;;11.40;99.90;;;;;;5051067;28;20328;-85
2023/04/29 05:38:54;;;;;;;;;;;11.40;99.90;;;;;;5050840;28;19958;-86
2023/04/29 05:41:20;;;;;;;;;;;11.50;99.90;;;;;;5051810;28;20353;-84
2023/04/29 05:43:45;;;;;;;;;;;11.50;99.90;;;;;;5050483;28;19909;-83
2023/04/29 05:46:11;;;;;;;;;;;11.60;99.90;;;;;;5050008;28;20349;-86
2023/04/29 05:48:37;;;;;;;;;;;11.60;99.90;;;;;;5050871;28;20300;-86
2023/04/29 05:51:02;;;;;;;;;;;11.70;99.90;;;;;;5051531;28;19905;-85
2023/04/29 05:53:28;;;;;;;;;;;11.80;99.90;;;;;;5052273;28;20699;-86
2023/04/29 05:55:53;;;;;;;;;;;11.90;99.90;;;;;;5051534;28;19912;-86
2023/04/29 05:58:19;;;;;;;;;;;12.00;99.90;;;;;;5051454;28;19909;-85
2023/04/29 06:00:44;;;;;;;;;;;12.10;99.90;;;;;;5051038;28;19924;-84
2023/04/29 06:03:11;;;;;;;;;;;12.30;99.90;;;;;;5050935;28;20369;-86
2023/04/29 06:05:36;;;;;;;;;;;12.50;99.90;;;;;;5051399;28;19913;-85
2023/04/29 06:08:03;;;;;;;;;;;12.70;99.90;;;;;;5054753;28;19916;-85
2023/04/29 06:10:28;;;;;;;;;;;13.20;99.90;;;;;;5054960;28;20003;-86
2023/04/29 06:12:54;;;;;;;;;;;13.40;99.90;;;;;;5055492;28;19963;-86
2023/04/29 06:15:20;;;;;;;;;;;13.50;99.40;;;;;;5056629;28;20078;-84
2023/04/29 06:17:46;;;;;;;;;;;13.50;98.00;;;;;;5055311;28;20387;-86
2023/04/29 06:20:11;;;;;;;;;;;13.40;96.80;;;;;;5055089;28;20284;-86
2023/04/29 06:22:37;;;;;;;;;;;13.30;99.70;;;;;;5056133;28;20361;-86
2023/04/29 06:25:03;;;;;;;;;;;13.20;99.10;;;;;;5055346;28;19916;-86
2023/04/29 06:27:28;;;;;;;;;;;13.20;97.10;;;;;;5056452;28;19952;-86
2023/04/29 06:29:54;;;;;;;;;;;13.30;97.80;;;;;;5056238;28;19912;-86
2023/04/29 06:32:19;;;;;;;;;;;13.10;96.60;;;;;;5052789;28;19908;-84
2023/04/29 06:34:45;;;;;;;;;;;13.10;98.70;;;;;;5053998;28;20285;-86
2023/04/29 06:37:11;;;;;;;;;;;13.00;97.40;;;;;;5054145;28;19916;-85
2023/04/29 06:39:36;;;;;;;;;;;13.00;97.20;;;;;;5055689;28;19904;-86
2023/04/29 06:42:02;;;;;;;;;;;13.10;98.70;;;;;;5052918;28;19989;-85
2023/04/29 06:44:28;;;;;;;;;;;13.20;99.40;;;;;;5054334;28;20373;-85
2023/04/29 06:46:53;;;;;;;;;;;13.10;99.90;;;;;;5054379;28;19904;-86
2023/04/29 06:49:19;;;;;;;;;;;13.20;99.90;;;;;;5054423;28;20532;-86
2023/04/29 06:51:44;;;;;;;;;;;13.20;99.00;;;;;;5054083;28;19908;-86
2023/04/29 06:54:10;;;;;;;;;;;13.00;99.90;;;;;;5055135;28;19931;-86
2023/04/29 06:56:35;;;;;;;;;;;13.00;99.20;;;;;;5053566;28;19909;-85
2023/04/29 06:59:01;;;;;;;;;;;13.00;99.90;;;;;;5053986;28;19909;-84
2023/04/29 07:01:26;;;;;;;;;;;12.80;99.90;;;;;;5053323;28;19939;-85
2023/04/29 07:03:52;;;;;;;;;;;12.80;99.30;;;;;;5054825;28;19935;-85
2023/04/29 07:06:17;;;;;;;;;;;12.80;99.90;;;;;;5054931;28;19905;-84
2023/04/29 07:08:43;;;;;;;;;;;12.70;99.90;;;;;;5053239;28;19930;-85
2023/04/29 07:11:08;;;;;;;;;;;12.70;99.90;;;;;;5053772;28;19962;-85
2023/04/29 07:13:34;;;;;;;;;;;12.60;99.90;;;;;;5054444;28;20408;-86
2023/04/29 07:15:59;;;;;;;;;;;12.70;99.90;;;;;;5053994;28;19912;-84
2023/04/29 07:18:25;;;;;;;;;;;12.60;99.20;;;;;;5053805;28;20003;-85
2023/04/29 07:20:51;;;;;;;;;;;12.70;99.50;;;;;;5055070;28;20362;-85
2023/04/29 07:23:17;;;;;;;;;;;12.70;99.90;;;;;;5053701;28;19938;-85
2023/04/29 07:25:42;;;;;;;;;;;12.70;99.90;;;;;;5055096;28;19920;-85
2023/04/29 07:28:08;;;;;;;;;;;12.70;99.80;;;;;;5054448;28;20384;-84
2023/04/29 07:30:34;;;;;;;;;;;12.70;99.90;;;;;;5052821;28;20003;-86
2023/04/29 07:33:00;;;;;;;;;;;12.70;99.90;;;;;;5052439;28;19920;-85
2023/04/29 07:35:25;;;;;;;;;;;12.80;99.90;;;;;;5053499;28;19951;-85
2023/04/29 07:37:51;;;;;;;;;;;12.80;99.90;;;;;;5053693;28;19911;-85
2023/04/29 07:40:16;;;;;;;;;;;12.80;99.90;;;;;;5053286;28;20289;-85
2023/04/29 07:42:42;;;;;;;;;;;12.90;99.90;;;;;;5050658;28;19908;-84
2023/04/29 07:45:08;;;;;;;;;;;12.80;99.90;;;;;;5053462;28;19912;-86
2023/04/29 07:47:33;;;;;;;;;;;12.90;99.90;;;;;;5053837;28;19939;-86
2023/04/29 07:49:59;;;;;;;;;;;12.90;99.90;;;;;;5053577;28;19904;-86
2023/04/29 07:52:24;;;;;;;;;;;13.00;99.90;;;;;;5053261;28;19912;-86
2023/04/29 07:54:50;;;;;;;;;;;13.10;99.90;;;;;;5054525;28;19905;-86
2023/04/29 07:57:16;;;;;;;;;;;13.20;99.90;;;;;;5053238;28;20388;-86
2023/04/29 07:59:41;;;;;;;;;;;13.30;99.90;;;;;;5053400;28;19917;-86
2023/04/29 08:02:07;;;;;;;;;;;13.30;99.90;;;;;;5053469;28;19904;-85
2023/04/29 08:04:32;;;;;;;;;;;13.30;99.30;;;;;;5053141;28;20436;-84
2023/04/29 08:06:58;;;;;;;;;;;13.50;99.90;;;;;;5053121;28;19904;-86
2023/04/29 08:09:23;;;;;;;;;;;13.60;98.30;;;;;;5052937;28;19912;-86
2023/04/29 08:11:49;;;;;;;;;;;13.80;94.80;;;;;;5053241;28;19908;-86
2023/04/29 08:14:15;;;;;;;;;;;13.90;93.40;;;;;;5053389;28;19905;-86
2023/04/29 08:16:40;;;;;;;;;;;14.00;94.90;;;;;;5052525;28;19940;-85
2023/04/29 08:19:05;;;;;;;;;;;14.10;92.10;;;;;;5052600;28;19905;-86
2023/04/29 08:21:31;;;;;;;;;;;14.10;91.90;;;;;;5053016;28;19966;-85
2023/04/29 08:23:57;;;;;;;;;;;14.20;91.90;;;;;;5054142;28;19908;-86
2023/04/29 08:26:23;;;;;;;;;;;14.30;86.90;;;;;;5052951;28;19909;-85
2023/04/29 08:28:48;;;;;;;;;;;14.40;83.70;;;;;;5051922;28;19909;-85
2023/04/29 08:31:18;;;;;;;;;;;14.60;86.10;;;;;;5052889;28;19904;-86
2023/04/29 08:33:43;;;;;;;;;;;14.70;83.00;;;;;;5052720;28;19991;-86
2023/04/29 08:36:09;;;;;;;;;;;15.00;79.50;;;;;;5052996;28;19912;-86
2023/04/29 08:38:34;;;;;;;;;;;15.20;73.50;;;;;;5052673;28;19904;-86
2023/04/29 08:41:00;;;;;;;;;;;15.30;71.90;;;;;;5052748;28;19912;-86
2023/04/29 08:43:26;;;;;;;;;;;15.50;69.20;;;;;;5053647;28;19904;-86
2023/04/29 08:45:51;;;;;;;;;;;15.60;71.10;;;;;;5052325;28;19915;-86
2023/04/29 08:48:17;;;;;;;;;;;15.70;71.90;;;;;;5052559;28;20381;-85
2023/04/29 08:50:43;;;;;;;;;;;15.80;70.70;;;;;;5052050;28;19909;-85
2023/04/29 08:53:09;;;;;;;;;;;15.60;69.50;;;;;;5052195;28;19905;-85
2023/04/29 08:55:35;;;;;;;;;;;15.30;68.90;;;;;;5051892;28;19909;-85
2023/04/29 08:58:01;;;;;;;;;;;15.20;70.90;;;;;;5051746;28;19911;-85
2023/04/29 09:00:29;;;;;;;;;;;15.20;70.00;;;;;;5049339;28;19921;-86
2023/04/29 09:02:56;;;;;;;;;;;15.20;73.30;;;;;;5051567;28;19916;-86
2023/04/29 09:05:22;;;;;;;;;;;15.10;72.70;;;;;;5053306;28;19919;-84
2023/04/29 09:07:49;;;;;;;;;;;15.10;68.40;;;;;;5051949;28;19905;-86
2023/04/29 09:10:14;;;;;;;;;;;15.00;70.70;;;;;;5052070;28;19905;-85
2023/04/29 09:12:40;;;;;;;;;;;14.90;71.30;;;;;;5052185;28;19905;-86
2023/04/29 09:15:06;;;;;;;;;;;14.90;72.40;;;;;;5051974;28;19905;-85
2023/04/29 09:17:41;;;;;;;;;;;14.80;74.40;;;;;;5051560;28;20011;-85
2023/04/29 09:20:19;;;;;;;;;;;14.60;72.20;;;;;;5051702;28;19908;-85
2023/04/29 09:22:48;;;;;;;;;;;14.60;72.20;;;;;;5051798;28;19911;-86
2023/04/29 09:25:14;;;;;;;;;;;14.60;71.70;;;;;;5051896;28;19987;-85
2023/04/29 09:27:39;;;;;;;;;;;14.50;72.70;;;;;;5053235;28;19947;-86
2023/04/29 09:30:05;;;;;;;;;;;14.40;73.90;;;;;;5051736;28;19905;-85
2023/04/29 09:32:31;;;;;;;;;;;14.50;72.70;;;;;;5051851;28;19978;-85
2023/04/29 09:34:56;;;;;;;;;;;14.40;73.90;;;;;;5051597;28;19916;-86
2023/04/29 09:37:26;;;;;;;;;;;14.50;75.10;;;;;;5051713;28;19939;-86
2023/04/29 09:39:52;;;;;;;;;;;14.40;73.40;;;;;;5051373;28;19909;-85
2023/04/29 09:42:18;;;;;;;;;;;14.50;71.90;;;;;;5050558;28;20277;-85
2023/04/29 09:44:44;;;;;;;;;;;14.50;73.60;;;;;;5051323;28;19963;-85
2023/04/29 09:47:10;;;;;;;;;;;14.60;73.40;;;;;;5051810;28;19950;-86
2023/04/29 09:49:40;;;;;;;;;;;14.80;75.10;;;;;;5051765;28;19908;-85
2023/04/29 09:52:08;;;;;;;;;;;14.90;74.30;;;;;;5050534;28;19916;-85
2023/04/29 09:54:37;;;;;;;;;;;15.10;75.30;;;;;;5050732;28;20373;-86
2023/04/29 09:57:04;;;;;;;;;;;15.40;71.10;;;;;;5049798;28;19908;-86
2023/04/29 09:59:31;;;;;;;;;;;15.50;68.50;;;;;;5050894;28;19920;-86
2023/04/29 10:01:57;;;;;;;;;;;15.50;69.40;;;;;;5050984;28;19962;-86
2023/04/29 10:04:26;;;;;;;;;;;15.60;70.70;;;;;;5050349;28;19913;-84
2023/04/29 10:06:53;;;;;;;;;;;15.70;70.50;;;;;;5051795;28;19912;-86
2023/04/29 10:09:19;;;;;;;;;;;15.70;61.30;;;;;;5051442;28;19970;-86
2023/04/29 10:11:45;;;;;;;;;;;15.70;59.30;;;;;;5050969;28;19904;-85
2023/04/29 10:14:12;;;;;;;;;;;15.80;59.40;;;;;;5050448;28;19912;-86
2023/04/29 10:16:43;;;;;;;;;;;15.80;55.80;;;;;;5051407;28;19909;-85
2023/04/29 10:19:11;;;;;;;;;;;15.90;55.40;;;;;;5051325;28;19927;-86
2023/04/29 10:21:37;;;;;;;;;;;16.00;53.70;;;;;;5053125;28;19908;-86
2023/04/29 10:24:03;;;;;;;;;;;16.00;54.40;;;;;;5051512;28;19913;-86
2023/04/29 10:26:30;;;;;;;;;;;16.10;56.00;;;;;;5052307;28;19987;-86
2023/04/29 10:28:58;;;;;;;;;;;16.00;54.40;;;;;;5052648;28;19912;-87
2023/04/29 10:31:26;;;;;;;;;;;16.10;54.10;;;;;;5052209;28;19911;-87
2023/04/29 10:34:00;;;;;;;;;;;15.90;52.70;;;;;;5049381;28;19915;-86
2023/04/29 10:36:27;;;;;;;;;;;15.90;53.80;;;;;;5051227;28;19959;-85
2023/04/29 10:38:54;;;;;;;;;;;16.00;53.80;;;;;;5051348;28;19905;-86
2023/04/29 10:41:23;;;;;;;;;;;16.10;53.60;;;;;;5052422;28;19916;-86
2023/04/29 10:43:49;;;;;;;;;;;16.10;53.80;;;;;;5051137;28;20291;-86
2023/04/29 10:46:15;;;;;;;;;;;16.10;53.20;;;;;;5051301;28;19916;-86
2023/04/29 10:48:42;;;;;;;;;;;16.20;54.10;;;;;;5049898;28;19905;-86
2023/04/29 10:51:07;;;;;;;;;;;16.20;53.80;;;;;;5050217;28;19951;-86
2023/04/29 10:53:33;;;;;;;;;;;16.40;54.50;;;;;;5053465;28;19951;-85
2023/04/29 10:56:02;;;;;;;;;;;16.40;53.60;;;;;;5054738;28;20258;-87
2023/04/29 10:58:38;;;;;;;;;;;16.60;52.90;;;;;;5054302;28;19958;-86
2023/04/29 11:01:04;;;;;;;;;;;16.60;52.20;;;;;;5054243;28;19921;-86
2023/04/29 11:03:49;;;;;;;;;;;16.90;52.30;;;;;;5054797;28;19939;-87
2023/04/29 11:06:15;;;;;;;;;;;17.10;52.00;;;;;;5054280;28;19920;-87
2023/04/29 11:08:42;;;;;;;;;;;17.20;51.80;;;;;;5054438;28;19908;-86
2023/04/29 11:11:08;;;;;;;;;;;17.40;53.60;;;;;;5054489;28;19905;-87
2023/04/29 11:13:37;;;;;;;;;;;17.60;47.50;;;;;;5053753;28;20001;-85
2023/04/29 11:16:03;;;;;;;;;;;17.50;43.70;;;;;;5052811;28;19908;-87
2023/04/29 11:18:28;;;;;;;;;;;17.60;44.60;;;;;;5051617;28;19916;-86
2023/04/29 11:21:03;;;;;;;;;;;17.70;44.50;;;;;;5053547;28;20308;-86
2023/04/29 11:23:29;;;;;;;;;;;17.70;44.90;;;;;;5054110;28;19908;-86
2023/04/29 11:25:55;;;;;;;;;;;17.60;46.60;;;;;;5054282;28;19939;-86
2023/04/29 11:28:22;;;;;;;;;;;17.60;47.00;;;;;;5053994;28;19909;-86
2023/04/29 11:30:49;;;;;;;;;;;17.60;46.90;;;;;;5053440;28;19909;-85
2023/04/29 11:33:15;;;;;;;;;;;17.70;47.40;;;;;;5053699;28;19905;-88
2023/04/29 11:35:41;;;;;;;;;;;17.70;46.90;;;;;;5053350;28;19911;-86
2023/04/29 11:38:06;;;;;;;;;;;17.80;48.30;;;;;;5053447;28;19909;-86
2023/04/29 11:40:32;;;;;;;;;;;17.80;47.20;;;;;;5052076;28;20446;-87
2023/04/29 11:42:58;;;;;;;;;;;17.80;47.50;;;;;;5054947;28;19905;-85
2023/04/29 11:45:23;;;;;;;;;;;17.70;47.90;;;;;;5052898;28;20015;-84
2023/04/29 11:47:49;;;;;;;;;;;17.80;47.40;;;;;;5052523;28;19905;-85
2023/04/29 11:50:16;;;;;;;;;;;17.60;48.50;;;;;;5052288;28;19915;-86
2023/04/29 11:52:43;;;;;;;;;;;17.70;47.60;;;;;;5052642;28;19905;-84
2023/04/29 11:55:10;;;;;;;;;;;17.70;49.30;;;;;;5052890;28;19957;-85
2023/04/29 11:57:35;;;;;;;;;;;17.90;48.70;;;;;;5053256;28;19959;-86
2023/04/29 12:00:01;;;;;;;;;;;17.70;48.50;;;;;;5051530;28;19920;-86
2023/04/29 12:02:30;;;;;;;;;;;17.70;49.30;;;;;;5052795;28;19958;-85
2023/04/29 12:04:56;;;;;;;;;;;17.80;50.70;;;;;;5050703;28;19920;-85
2023/04/29 12:07:22;;;;;;;;;;;17.90;50.40;;;;;;5052341;28;19943;-86
2023/04/29 12:09:48;;;;;;;;;;;18.10;51.70;;;;;;5052452;28;20011;-86
2023/04/29 12:12:13;;;;;;;;;;;18.40;51.40;;;;;;5051679;28;19908;-87
2023/04/29 12:14:40;;;;;;;;;;;18.70;50.10;;;;;;5054024;28;20373;-83
2023/04/29 12:17:06;;;;;;;;;;;18.70;47.60;;;;;;5052523;28;19909;-85
2023/04/29 12:19:32;;;;;;;;;;;18.60;47.70;;;;;;5052348;28;19992;-85
2023/04/29 12:22:02;;;;;;;;;;;18.60;49.50;;;;;;5052868;28;19950;-85
2023/04/29 12:24:27;;;;;;;;;;;18.40;49.20;;;;;;5051693;28;19955;-85
2023/04/29 12:26:54;;;;;;;;;;;18.30;50.70;;;;;;5051864;28;19955;-84
2023/04/29 12:29:21;;;;;;;;;;;18.30;50.30;;;;;;5051657;28;20701;-85
2023/04/29 12:31:46;;;;;;;;;;;18.30;51.70;;;;;;5051338;28;19994;-87
2023/04/29 12:34:12;;;;;;;;;;;18.40;51.30;;;;;;5051562;28;19943;-86
2023/04/29 12:36:40;;;;;;;;;;;18.70;52.40;;;;;;5051241;28;19909;-85
2023/04/29 12:39:09;;;;;;;;;;;19.10;51.60;;;;;;5052272;28;19915;-85
2023/04/29 12:41:38;;;;;;;;;;;19.30;51.60;;;;;;5052872;28;19955;-86
2023/04/29 12:44:05;;;;;;;;;;;19.40;50.00;;;;;;5053013;28;20262;-85
2023/04/29 12:46:37;;;;;;;;;;;19.30;48.60;;;;;;5052353;28;19970;-86
2023/04/29 12:49:04;;;;;;;;;;;19.10;49.80;;;;;;5052478;28;19909;-85
2023/04/29 12:51:31;;;;;;;;;;;18.90;49.20;;;;;;5051965;28;19915;-86
2023/04/29 12:53:57;;;;;;;;;;;18.50;50.10;;;;;;5052470;28;19909;-85
2023/04/29 12:56:23;;;;;;;;;;;18.50;51.50;;;;;;5052639;28;20683;-85
2023/04/29 12:58:48;;;;;;;;;;;18.40;51.90;;;;;;5052593;28;19957;-87
2023/04/29 13:01:15;;;;;;;;;;;18.50;52.40;;;;;;5052105;28;19990;-86
2023/04/29 13:03:40;;;;;;;;;;;18.60;52.20;;;;;;5049826;28;19913;-85
2023/04/29 13:06:07;;;;;;;;;;;18.80;53.70;;;;;;5050710;28;20411;-86
2023/04/29 13:08:33;;;;;;;;;;;19.10;53.30;;;;;;5050313;28;19995;-86
2023/04/29 13:10:58;;;;;;;;;;;19.30;52.70;;;;;;5050237;28;20003;-86
2023/04/29 13:13:24;;;;;;;;;;;19.30;52.80;;;;;;5051812;28;19954;-85
2023/04/29 13:15:49;;;;;;;;;;;19.40;52.00;;;;;;5052349;28;19912;-86
2023/04/29 13:18:15;;;;;;;;;;;19.30;51.30;;;;;;5050449;28;19904;-85
2023/04/29 13:20:41;;;;;;;;;;;19.00;50.90;;;;;;5050017;28;19904;-86
2023/04/29 13:23:07;;;;;;;;;;;19.00;52.90;;;;;;5050444;28;19915;-84
2023/04/29 13:25:32;;;;;;;;;;;19.10;53.40;;;;;;5049994;28;19913;-86
2023/04/29 13:27:58;;;;;;;;;;;19.10;53.10;;;;;;5050149;28;19973;-84
2023/04/29 13:30:23;;;;;;;;;;;19.00;52.40;;;;;;5050409;28;19948;-85
2023/04/29 13:32:49;;;;;;;;;;;18.90;53.40;;;;;;5051944;28;19928;-85
2023/04/29 13:35:14;;;;;;;;;;;18.90;53.20;;;;;;5049272;28;19915;-86
2023/04/29 13:37:40;;;;;;;;;;;18.70;53.20;;;;;;5049540;28;19955;-84
2023/04/29 13:40:06;;;;;;;;;;;18.50;53.50;;;;;;5050740;28;19905;-86
2023/04/29 13:42:31;;;;;;;;;;;18.20;54.70;;;;;;5051663;28;19916;-86
2023/04/29 13:44:57;;;;;;;;;;;18.10;55.40;;;;;;5052002;28;19916;-87
2023/04/29 13:47:23;;;;;;;;;;;18.10;55.60;;;;;;5050781;28;20292;-86
2023/04/29 13:49:48;;;;;;;;;;;18.00;55.60;;;;;;5052682;28;19928;-85
2023/04/29 13:52:14;;;;;;;;;;;17.80;54.80;;;;;;5051866;28;19915;-86
2023/04/29 13:54:40;;;;;;;;;;;17.80;56.50;;;;;;5050670;28;19909;-84
2023/04/29 13:57:05;;;;;;;;;;;17.90;57.70;;;;;;5050441;28;19908;-86
2023/04/29 13:59:31;;;;;;;;;;;18.10;57.70;;;;;;5049586;28;20407;-86
2023/04/29 14:01:57;;;;;;;;;;;18.20;57.30;;;;;;5050678;28;19904;-86
2023/04/29 14:04:23;;;;;;;;;;;18.20;57.80;;;;;;5049863;28;19912;-84
2023/04/29 14:06:49;;;;;;;;;;;18.30;57.30;;;;;;5051718;28;19978;-87
2023/04/29 14:09:15;;;;;;;;;;;18.30;57.60;;;;;;5050303;28;19912;-86
2023/04/29 14:11:41;;;;;;;;;;;18.30;56.80;;;;;;5053920;28;19912;-86